Página principal
METAR-TAF:

METAR-TAF

Aeroportos :

Guilin, China

Aeroporto Internacional de Guilin Liangjiang

latitude: 25-20N, longitude: 110-18E, altura: 166 m

Observação actual do tempo

O boletim foi feito há 24 minutos, às 02:00 UTC
Vento 8 kt de nordeste
Temperatura 21°C
Humidade 56%
Pressão 1020 hPa
Visibilidade 10 km ou mais
sem nuvens abaixo de 1500 metros e sem cumulonimbus

METAR: ZGKL 280200Z 05004MPS CAVOK 21/12 Q1020 NOSIG

Hora: 10:24 (02:24 UTC)

Previsão

O boletim foi feito há 7 horas e 14 minutos, às 19:10 UTC
Previsão válida de 28 às 00 UTC a 28 às 24 UTC
Vento 8 kt de nordeste
Visibilidade: 8000 m

TAF: ZGKL 271910Z 2800/2824 05004MPS 8000 NSC TX25/2807Z TN15/2822Z

Observações e previsões do tempo de mais de 4000 aeroportos (mensagens METAR e TAF).

As estações disponíveis são os pontos amarelos e vermelhos sobre o mapa.

Mova o rato sobre o mapa para ver o nome da estação.

Depois clique no ponto para visualizar as observações e previsões meteorológicas.

Para alterar o mapa : clique nos botões verdes com uma cruz preta para aumentar o zoom; no botão verde com uma pitada de zoom; ou nas setas verdes para mapas adjacentes.


METAR-TAF: